createdAt,value
2023-01-25T00:00:07.090Z,6.20
2023-01-25T00:01:08.858Z,6.20
2023-01-25T00:02:10.576Z,6.20
2023-01-25T00:03:12.489Z,6.20
2023-01-25T00:04:14.214Z,6.20
2023-01-25T00:05:16.254Z,6.20
2023-01-25T00:06:18.025Z,6.20
2023-01-25T00:07:19.774Z,6.20
2023-01-25T00:08:22.199Z,6.20
2023-01-25T00:09:25.384Z,6.20
2023-01-25T00:10:28.755Z,6.20
2023-01-25T00:11:31.569Z,6.20
2023-01-25T00:12:33.261Z,6.20
2023-01-25T00:13:34.924Z,6.20
2023-01-25T00:14:36.777Z,6.20
2023-01-25T00:15:38.582Z,6.20
2023-01-25T00:16:42.189Z,6.20
2023-01-25T00:17:45.051Z,6.20
2023-01-25T00:18:46.924Z,6.20
2023-01-25T00:19:50.998Z,6.20
2023-01-25T00:21:11.697Z,6.40
2023-01-25T00:22:13.616Z,6.20
2023-01-25T00:23:23.102Z,6.20
2023-01-25T00:24:39.794Z,6.20
2023-01-25T00:25:43.259Z,6.20
2023-01-25T00:26:45.278Z,6.20
2023-01-25T00:27:48.192Z,6.20
2023-01-25T00:28:54.482Z,6.20
2023-01-25T00:29:56.470Z,6.20
2023-01-25T00:31:04.989Z,6.20
2023-01-25T00:32:36.883Z,6.20
2023-01-25T00:33:39.380Z,6.20
2023-01-25T00:34:51.436Z,6.30
2023-01-25T00:35:57.120Z,6.20
2023-01-25T00:37:02.820Z,6.20
2023-01-25T00:38:25.269Z,6.20
2023-01-25T00:39:27.724Z,6.00
2023-01-25T00:40:29.493Z,6.30
2023-01-25T00:41:31.947Z,6.30
2023-01-25T00:42:34.023Z,6.30
2023-01-25T00:43:37.273Z,6.30
2023-01-25T00:44:40.056Z,6.30
2023-01-25T00:45:42.200Z,6.30
2023-01-25T00:46:44.575Z,6.30
2023-01-25T00:47:46.471Z,6.30
2023-01-25T00:48:48.394Z,6.30
2023-01-25T00:49:50.412Z,6.30
2023-01-25T00:50:52.370Z,6.30
2023-01-25T00:51:55.569Z,6.30
2023-01-25T00:52:57.433Z,6.30
2023-01-25T00:53:59.272Z,6.40
2023-01-25T00:55:01.261Z,6.30
2023-01-25T00:56:04.001Z,6.40
2023-01-25T00:57:08.664Z,6.40
2023-01-25T00:58:10.554Z,6.40
2023-01-25T00:59:14.210Z,6.40
2023-01-25T01:00:16.702Z,6.40
2023-01-25T01:01:18.623Z,6.40
2023-01-25T01:02:22.663Z,6.40
2023-01-25T01:03:24.433Z,6.40
2023-01-25T01:04:26.435Z,6.40
2023-01-25T01:05:30.705Z,6.50
2023-01-25T01:06:35.207Z,6.50
2023-01-25T01:07:37.236Z,6.50
2023-01-25T01:08:42.345Z,6.50
2023-01-25T01:09:44.195Z,6.50
2023-01-25T01:10:48.040Z,6.50
2023-01-25T01:11:50.127Z,6.50
2023-01-25T01:12:51.863Z,6.50
2023-01-25T01:13:53.628Z,6.50
2023-01-25T01:14:56.757Z,6.50
2023-01-25T01:16:02.817Z,6.50
2023-01-25T01:17:04.795Z,6.50
2023-01-25T01:18:06.876Z,6.50
2023-01-25T01:19:11.427Z,6.50
2023-01-25T01:20:13.362Z,6.60
2023-01-25T01:21:15.299Z,6.60
2023-01-25T01:22:17.515Z,6.60
2023-01-25T01:23:19.933Z,6.60
2023-01-25T01:24:24.711Z,6.60
2023-01-25T01:25:27.864Z,6.60
2023-01-25T01:26:29.622Z,6.60
2023-01-25T01:27:31.502Z,6.60
2023-01-25T01:28:34.973Z,6.60
2023-01-25T01:29:39.216Z,6.60
2023-01-25T01:30:41.300Z,6.60
2023-01-25T01:31:43.176Z,6.60
2023-01-25T01:32:45.256Z,6.60
2023-01-25T01:33:51.590Z,6.60
2023-01-25T01:34:53.516Z,6.60
2023-01-25T01:35:55.366Z,6.70
2023-01-25T01:36:57.058Z,6.70
2023-01-25T01:37:59.275Z,6.70
2023-01-25T01:39:01.273Z,6.70
2023-01-25T01:40:08.092Z,6.70
2023-01-25T01:41:11.693Z,6.70
2023-01-25T01:42:13.377Z,6.70
2023-01-25T01:43:24.789Z,6.70
2023-01-25T01:44:45.161Z,6.70
2023-01-25T01:45:51.792Z,6.70
2023-01-25T01:46:56.602Z,6.70
2023-01-25T01:47:58.642Z,6.70
2023-01-25T01:49:19.763Z,6.70
2023-01-25T01:50:24.483Z,6.70
2023-01-25T01:51:40.874Z,6.70
2023-01-25T01:52:45.509Z,6.70
2023-01-25T01:54:03.335Z,6.70
2023-01-25T01:55:18.263Z,6.60
2023-01-25T01:56:25.696Z,6.60
2023-01-25T01:57:41.121Z,6.60
2023-01-25T01:58:44.994Z,6.60
2023-01-25T01:59:52.490Z,6.60
2023-01-25T02:00:54.453Z,6.60
2023-01-25T02:01:56.712Z,6.60
2023-01-25T02:02:59.049Z,6.60
2023-01-25T02:04:02.984Z,6.50
2023-01-25T02:05:07.293Z,6.50
2023-01-25T02:06:40.726Z,6.50
2023-01-25T02:07:43.515Z,6.50
2023-01-25T02:08:47.232Z,6.60
2023-01-25T02:09:51.315Z,6.50
2023-01-25T02:10:53.749Z,6.50
2023-01-25T02:11:59.121Z,6.50
2023-01-25T02:13:01.771Z,6.50
2023-01-25T02:14:04.180Z,6.50
2023-01-25T02:15:07.010Z,6.60
2023-01-25T02:16:16.658Z,6.60
2023-01-25T02:17:30.182Z,6.50
2023-01-25T02:18:32.171Z,6.60
2023-01-25T02:20:01.077Z,6.60
2023-01-25T02:21:39.885Z,6.60
2023-01-25T02:22:56.991Z,6.60
2023-01-25T02:24:09.443Z,6.60
2023-01-25T02:25:14.979Z,6.60
2023-01-25T02:26:21.595Z,6.60
2023-01-25T02:27:23.482Z,6.60
2023-01-25T02:28:28.069Z,6.60
2023-01-25T02:29:30.442Z,6.60
2023-01-25T02:30:34.337Z,6.50
2023-01-25T02:31:37.940Z,6.60
2023-01-25T02:32:39.868Z,6.50
2023-01-25T02:33:42.189Z,6.60
2023-01-25T02:34:44.055Z,6.60
2023-01-25T02:35:50.548Z,6.60
2023-01-25T02:36:52.862Z,6.60
2023-01-25T02:38:00.494Z,6.60
2023-01-25T02:39:20.342Z,6.70
2023-01-25T02:40:22.585Z,6.60
2023-01-25T02:41:41.652Z,6.60
2023-01-25T02:42:44.996Z,6.60
2023-01-25T02:43:48.283Z,6.70
2023-01-25T02:44:51.849Z,6.60
2023-01-25T02:46:03.844Z,6.60
2023-01-25T02:47:05.872Z,6.60
2023-01-25T02:48:07.878Z,6.60
2023-01-25T02:49:10.401Z,6.60
2023-01-25T02:50:14.997Z,6.60
2023-01-25T02:51:17.132Z,6.60
2023-01-25T02:52:18.838Z,6.60
2023-01-25T02:53:20.530Z,6.60
2023-01-25T02:54:22.455Z,6.60
2023-01-25T02:55:24.193Z,6.50
2023-01-25T02:56:26.225Z,6.60
2023-01-25T02:57:27.997Z,6.50
2023-01-25T02:58:29.833Z,6.60
2023-01-25T02:59:31.639Z,6.50
2023-01-25T03:00:34.014Z,6.60
2023-01-25T03:01:37.941Z,6.60
2023-01-25T03:02:39.959Z,6.60
2023-01-25T03:03:42.342Z,6.60
2023-01-25T03:04:44.406Z,6.60
2023-01-25T03:05:46.238Z,6.60
2023-01-25T03:06:47.980Z,6.60
2023-01-25T03:07:52.725Z,6.60
2023-01-25T03:08:54.567Z,6.60
2023-01-25T03:09:56.962Z,6.60
2023-01-25T03:11:00.506Z,6.60
2023-01-25T03:12:02.318Z,6.60
2023-01-25T03:13:04.419Z,6.60
2023-01-25T03:14:07.501Z,6.60
2023-01-25T03:15:09.784Z,6.60
2023-01-25T03:16:13.518Z,6.60
2023-01-25T03:17:15.227Z,6.60
2023-01-25T03:18:18.749Z,6.70
2023-01-25T03:19:20.665Z,6.70
2023-01-25T03:20:33.589Z,6.70
2023-01-25T03:21:49.022Z,6.70
2023-01-25T03:22:50.948Z,6.70
2023-01-25T03:23:58.380Z,6.70
2023-01-25T03:25:00.358Z,6.70
2023-01-25T03:26:14.692Z,6.70
2023-01-25T03:27:18.494Z,6.70
2023-01-25T03:28:20.476Z,6.70
2023-01-25T03:29:22.232Z,6.70
2023-01-25T03:30:24.265Z,6.70
2023-01-25T03:31:26.337Z,6.70
2023-01-25T03:32:28.134Z,6.70
2023-01-25T03:33:29.982Z,6.70
2023-01-25T03:34:31.761Z,6.70
2023-01-25T03:35:34.731Z,6.70
2023-01-25T03:36:36.503Z,6.70
2023-01-25T03:37:38.214Z,6.70
2023-01-25T03:38:39.908Z,6.70
2023-01-25T03:39:42.357Z,6.70
2023-01-25T03:40:45.480Z,6.70
2023-01-25T03:41:47.452Z,6.70
2023-01-25T03:42:50.988Z,6.70
2023-01-25T03:43:52.674Z,6.70
2023-01-25T03:44:54.489Z,6.70
2023-01-25T03:45:59.666Z,6.70
2023-01-25T03:47:01.703Z,6.70
2023-01-25T03:48:03.754Z,6.80
2023-01-25T03:49:05.717Z,6.70
2023-01-25T03:50:09.540Z,6.70
2023-01-25T03:51:11.398Z,6.70
2023-01-25T03:52:13.300Z,6.70
2023-01-25T03:53:27.318Z,6.70
2023-01-25T03:54:29.217Z,6.70
2023-01-25T03:55:31.052Z,6.70
2023-01-25T03:56:32.751Z,6.70
2023-01-25T03:57:34.416Z,6.70
2023-01-25T03:58:39.796Z,6.70
2023-01-25T03:59:41.429Z,6.70
2023-01-25T04:00:43.226Z,6.70
2023-01-25T04:01:45.016Z,6.70
2023-01-25T04:02:47.486Z,6.70
2023-01-25T04:03:49.182Z,6.90
2023-01-25T04:04:51.285Z,6.70
2023-01-25T04:05:54.187Z,6.70
2023-01-25T04:06:56.041Z,6.70
2023-01-25T04:07:59.628Z,6.80
2023-01-25T04:09:01.402Z,6.70
2023-01-25T04:10:03.873Z,6.80
2023-01-25T04:11:10.398Z,6.70
2023-01-25T04:12:12.083Z,6.70
2023-01-25T04:13:13.803Z,6.70
2023-01-25T04:14:15.647Z,6.70
2023-01-25T04:15:17.347Z,6.70
2023-01-25T04:16:19.947Z,6.70
2023-01-25T04:17:22.253Z,6.70
2023-01-25T04:18:24.097Z,6.70
2023-01-25T04:19:25.831Z,6.70
2023-01-25T04:20:29.105Z,6.70
2023-01-25T04:21:31.043Z,6.70
2023-01-25T04:22:34.339Z,6.70
2023-01-25T04:23:36.613Z,6.70
2023-01-25T04:24:38.666Z,6.70
2023-01-25T04:25:40.831Z,6.70
2023-01-25T04:26:42.656Z,6.70
2023-01-25T04:27:44.391Z,6.70
2023-01-25T04:28:46.468Z,6.70
2023-01-25T04:29:49.632Z,6.70
2023-01-25T04:30:51.735Z,6.70
2023-01-25T04:31:53.681Z,6.70
2023-01-25T04:32:55.763Z,6.70
2023-01-25T04:33:57.515Z,6.70
2023-01-25T04:34:59.397Z,6.70
2023-01-25T04:36:03.937Z,6.70
2023-01-25T04:37:05.893Z,6.70
2023-01-25T04:38:10.437Z,6.70
2023-01-25T04:39:12.605Z,6.70
2023-01-25T04:40:14.575Z,6.80
2023-01-25T04:41:16.551Z,6.80
2023-01-25T04:42:18.529Z,6.80
2023-01-25T04:43:23.240Z,6.80
2023-01-25T04:44:26.175Z,6.80
2023-01-25T04:45:27.950Z,6.80
2023-01-25T04:46:29.829Z,6.80
2023-01-25T04:47:31.558Z,6.80
2023-01-25T04:48:33.664Z,6.80
2023-01-25T04:49:35.551Z,6.80
2023-01-25T04:50:38.588Z,6.80
2023-01-25T04:51:41.790Z,6.80
2023-01-25T04:52:43.566Z,6.80
2023-01-25T04:53:46.724Z,6.80
2023-01-25T04:54:48.790Z,6.80
2023-01-25T04:55:50.492Z,6.80
2023-01-25T04:56:52.253Z,6.80
2023-01-25T04:57:53.980Z,6.80
2023-01-25T04:58:55.736Z,6.80
2023-01-25T04:59:57.438Z,6.80
2023-01-25T05:01:02.767Z,6.80
2023-01-25T05:02:04.981Z,6.80
2023-01-25T05:03:06.983Z,6.90
2023-01-25T05:04:08.645Z,6.90
2023-01-25T05:05:11.571Z,6.90
2023-01-25T05:06:13.623Z,6.80
2023-01-25T05:07:15.379Z,6.90
2023-01-25T05:08:17.276Z,6.90
2023-01-25T05:09:19.300Z,6.80
2023-01-25T05:10:21.210Z,6.90
2023-01-25T05:11:23.176Z,6.90
2023-01-25T05:12:26.392Z,6.90
2023-01-25T05:13:28.498Z,6.90
2023-01-25T05:14:31.710Z,6.90
2023-01-25T05:15:33.531Z,6.90
2023-01-25T05:16:36.761Z,6.90
2023-01-25T05:17:38.669Z,6.80
2023-01-25T05:18:48.445Z,6.90
2023-01-25T05:19:50.884Z,6.90
2023-01-25T05:20:59.856Z,6.90
2023-01-25T05:22:03.851Z,6.90
2023-01-25T05:23:05.611Z,6.90
2023-01-25T05:24:07.676Z,6.80
2023-01-25T05:25:30.878Z,6.80
2023-01-25T05:26:51.360Z,6.80
2023-01-25T05:27:53.295Z,6.80
2023-01-25T05:28:55.158Z,6.80
2023-01-25T05:29:57.692Z,6.80
2023-01-25T05:31:01.805Z,6.80
2023-01-25T05:32:09.771Z,7.00
2023-01-25T05:33:11.525Z,6.80
2023-01-25T05:34:13.387Z,6.80
2023-01-25T05:35:18.135Z,6.80
2023-01-25T05:36:19.775Z,6.80
2023-01-25T05:37:22.472Z,6.90
2023-01-25T05:38:24.446Z,6.80
2023-01-25T05:39:26.353Z,6.80
2023-01-25T05:40:28.236Z,6.80
2023-01-25T05:41:31.245Z,6.80
2023-01-25T05:42:33.077Z,6.90
2023-01-25T05:43:34.989Z,6.80
2023-01-25T05:44:39.109Z,6.80
2023-01-25T05:45:43.460Z,6.90
2023-01-25T05:46:46.030Z,6.90
2023-01-25T05:47:52.214Z,6.90
2023-01-25T05:48:54.157Z,6.90
2023-01-25T05:49:56.324Z,6.90
2023-01-25T05:51:00.305Z,6.90
2023-01-25T05:52:02.240Z,6.90
2023-01-25T05:53:04.043Z,6.90
2023-01-25T05:54:07.690Z,6.90
2023-01-25T05:55:10.136Z,6.80
2023-01-25T05:56:13.314Z,6.80
2023-01-25T05:57:15.645Z,6.90
2023-01-25T05:58:17.558Z,6.90
2023-01-25T05:59:19.757Z,6.90
2023-01-25T06:00:21.885Z,6.80
2023-01-25T06:01:24.738Z,6.80
2023-01-25T06:02:26.989Z,6.80
2023-01-25T06:03:28.926Z,6.80
2023-01-25T06:04:31.078Z,6.80
2023-01-25T06:05:33.080Z,6.80
2023-01-25T06:06:36.412Z,6.80
2023-01-25T06:07:38.132Z,6.80
2023-01-25T06:08:40.358Z,6.80
2023-01-25T06:09:42.245Z,6.90
2023-01-25T06:10:44.370Z,6.90
2023-01-25T06:11:46.270Z,6.90
2023-01-25T06:12:49.135Z,6.90
2023-01-25T06:13:51.907Z,6.80
2023-01-25T06:14:55.312Z,6.80
2023-01-25T06:15:58.092Z,6.80
2023-01-25T06:17:00.052Z,6.80
2023-01-25T06:18:05.260Z,6.80
2023-01-25T06:19:08.709Z,6.80
2023-01-25T06:20:11.359Z,6.80
2023-01-25T06:21:13.613Z,6.80
2023-01-25T06:22:15.450Z,6.80
2023-01-25T06:23:20.171Z,6.80
2023-01-25T06:24:24.709Z,6.80
2023-01-25T06:25:26.464Z,6.80
2023-01-25T06:26:28.171Z,6.80
2023-01-25T06:27:31.594Z,6.80
2023-01-25T06:28:37.730Z,6.80
2023-01-25T06:29:39.794Z,6.80
2023-01-25T06:30:43.083Z,6.90
2023-01-25T06:31:44.987Z,6.90
2023-01-25T06:32:47.084Z,6.90
2023-01-25T06:33:50.702Z,6.90
2023-01-25T06:34:52.472Z,6.90
2023-01-25T06:35:54.306Z,6.90
2023-01-25T06:36:56.120Z,6.90
2023-01-25T06:37:58.540Z,6.90
2023-01-25T06:39:01.174Z,6.90
2023-01-25T06:40:03.077Z,6.90
2023-01-25T06:41:08.441Z,6.90
2023-01-25T06:42:11.118Z,6.90
2023-01-25T06:43:12.987Z,6.90
2023-01-25T06:44:16.985Z,6.90
2023-01-25T06:45:19.190Z,6.90
2023-01-25T06:46:22.707Z,6.90
2023-01-25T06:47:24.714Z,6.90
2023-01-25T06:48:27.416Z,6.90
2023-01-25T06:49:29.738Z,6.90
2023-01-25T06:50:31.467Z,7.00
2023-01-25T06:51:33.221Z,7.00
2023-01-25T06:52:37.846Z,7.00
2023-01-25T06:53:44.458Z,7.10
2023-01-25T06:54:46.255Z,7.00
2023-01-25T06:55:48.004Z,7.00
2023-01-25T06:56:50.039Z,7.00
2023-01-25T06:57:51.686Z,7.00
2023-01-25T06:58:53.637Z,7.10
2023-01-25T06:59:56.027Z,7.00
2023-01-25T07:01:03.666Z,7.30
2023-01-25T07:02:07.823Z,7.10
2023-01-25T07:03:11.641Z,7.00
2023-01-25T07:04:13.524Z,7.00
2023-01-25T07:05:15.454Z,7.10
2023-01-25T07:06:17.536Z,7.10
2023-01-25T07:07:19.260Z,7.00
2023-01-25T07:08:22.742Z,7.10
2023-01-25T07:09:24.844Z,7.10
2023-01-25T07:10:26.525Z,7.10
2023-01-25T07:11:30.042Z,7.10
2023-01-25T07:12:31.785Z,7.30
2023-01-25T07:13:34.605Z,7.10
2023-01-25T07:14:36.424Z,7.10
2023-01-25T07:15:38.241Z,7.10
2023-01-25T07:16:40.194Z,7.10
2023-01-25T07:17:42.021Z,7.10
2023-01-25T07:18:43.865Z,7.10
2023-01-25T07:19:45.612Z,7.10
2023-01-25T07:20:47.445Z,7.10
2023-01-25T07:21:49.498Z,7.00
2023-01-25T07:22:51.318Z,7.10
2023-01-25T07:23:54.529Z,7.10
2023-01-25T07:24:57.901Z,7.10
2023-01-25T07:26:00.397Z,7.10
2023-01-25T07:27:02.534Z,7.10
2023-01-25T07:28:04.560Z,7.10
2023-01-25T07:29:06.855Z,7.10
2023-01-25T07:30:09.903Z,7.10
2023-01-25T07:31:11.916Z,7.10
2023-01-25T07:32:15.101Z,7.10
2023-01-25T07:33:16.943Z,7.10
2023-01-25T07:34:18.845Z,7.10
2023-01-25T07:35:20.527Z,7.10
2023-01-25T07:36:22.546Z,7.10
2023-01-25T07:37:25.214Z,7.10
2023-01-25T07:38:28.513Z,7.10
2023-01-25T07:39:30.189Z,7.10
2023-01-25T07:40:32.032Z,7.10
2023-01-25T07:41:33.995Z,7.10
2023-01-25T07:42:36.545Z,7.10
2023-01-25T07:43:39.260Z,7.10
2023-01-25T07:44:41.829Z,7.10
2023-01-25T07:45:48.673Z,7.10
2023-01-25T07:46:50.727Z,7.20
2023-01-25T07:47:53.076Z,7.20
2023-01-25T07:48:55.282Z,7.20
2023-01-25T07:49:56.933Z,7.20
2023-01-25T07:51:12.711Z,7.20
2023-01-25T07:52:17.042Z,7.20
2023-01-25T07:53:19.313Z,7.20
2023-01-25T07:54:21.389Z,7.40
2023-01-25T07:55:27.531Z,7.20
2023-01-25T07:56:37.494Z,7.30
2023-01-25T07:57:39.477Z,7.10
2023-01-25T07:58:41.360Z,7.10
2023-01-25T07:59:43.331Z,7.10
2023-01-25T08:00:45.076Z,7.10
2023-01-25T08:01:47.005Z,7.10
2023-01-25T08:02:51.815Z,7.20
2023-01-25T08:03:56.366Z,7.20
2023-01-25T08:04:58.549Z,7.20
2023-01-25T08:06:00.564Z,7.20
2023-01-25T08:07:02.316Z,7.20
2023-01-25T08:08:06.462Z,7.20
2023-01-25T08:09:15.363Z,7.20
2023-01-25T08:10:17.324Z,7.20
2023-01-25T08:11:25.229Z,7.20
2023-01-25T08:12:27.988Z,7.20
2023-01-25T08:13:29.788Z,7.20
2023-01-25T08:14:32.660Z,7.20
2023-01-25T08:15:44.681Z,7.20
2023-01-25T08:16:46.564Z,7.20
2023-01-25T08:17:48.481Z,7.20
2023-01-25T08:18:54.802Z,7.20
2023-01-25T08:20:08.692Z,7.20
2023-01-25T08:21:10.545Z,7.20
2023-01-25T08:22:13.613Z,7.20
2023-01-25T08:23:15.425Z,7.10
2023-01-25T08:24:17.403Z,7.20
2023-01-25T08:25:20.770Z,7.20
2023-01-25T08:26:22.594Z,7.20
2023-01-25T08:27:27.284Z,7.10
2023-01-25T08:28:29.063Z,7.20
2023-01-25T08:29:31.298Z,7.10
2023-01-25T08:30:33.437Z,7.10
2023-01-25T08:31:37.631Z,7.30
2023-01-25T08:32:39.700Z,7.10
2023-01-25T08:33:46.621Z,7.10
2023-01-25T08:34:48.468Z,7.10
2023-01-25T08:35:57.053Z,7.10
2023-01-25T08:36:58.913Z,7.10
2023-01-25T08:38:05.040Z,7.10
2023-01-25T08:39:11.565Z,7.10
2023-01-25T08:40:14.399Z,7.00
2023-01-25T08:41:19.878Z,7.00
2023-01-25T08:42:22.540Z,7.00
2023-01-25T08:43:26.340Z,7.00
2023-01-25T08:44:28.243Z,7.00
2023-01-25T08:45:34.547Z,7.00
2023-01-25T08:46:36.404Z,7.00
2023-01-25T08:47:38.077Z,7.00
2023-01-25T08:48:40.068Z,7.00
2023-01-25T08:49:42.522Z,7.00
2023-01-25T08:50:48.555Z,7.00
2023-01-25T08:51:50.725Z,7.00
2023-01-25T08:52:52.522Z,7.00
2023-01-25T08:53:54.531Z,7.00
2023-01-25T08:54:56.474Z,7.00
2023-01-25T08:56:10.573Z,7.00
2023-01-25T08:57:13.234Z,7.00
2023-01-25T08:58:20.086Z,6.90
2023-01-25T08:59:22.403Z,6.90
2023-01-25T09:00:24.422Z,6.90
2023-01-25T09:01:26.764Z,6.90
2023-01-25T09:02:28.924Z,6.90
2023-01-25T09:03:31.256Z,6.90
2023-01-25T09:04:33.206Z,6.90
2023-01-25T09:05:35.769Z,6.90
2023-01-25T09:06:37.582Z,7.00
2023-01-25T09:07:40.692Z,7.00
2023-01-25T09:08:44.562Z,7.00
2023-01-25T09:09:47.664Z,7.00
2023-01-25T09:10:49.898Z,7.00
2023-01-25T09:11:51.772Z,7.00
2023-01-25T09:12:55.679Z,7.00
2023-01-25T09:14:01.182Z,7.00
2023-01-25T09:15:04.193Z,7.00
2023-01-25T09:16:14.711Z,7.00
2023-01-25T09:17:16.610Z,7.00
2023-01-25T09:18:18.698Z,7.10
2023-01-25T09:19:21.509Z,7.10
2023-01-25T09:20:25.813Z,7.10
2023-01-25T09:21:28.679Z,7.10
2023-01-25T09:22:31.895Z,7.00
2023-01-25T09:23:40.109Z,7.00
2023-01-25T09:24:59.523Z,7.00
2023-01-25T09:26:03.529Z,7.10
2023-01-25T09:27:05.984Z,7.00
2023-01-25T09:28:11.388Z,7.00
2023-01-25T09:29:13.447Z,7.00
2023-01-25T09:30:18.855Z,7.00
2023-01-25T09:31:24.582Z,7.00
2023-01-25T09:32:27.040Z,7.00
2023-01-25T09:33:32.048Z,7.00
2023-01-25T09:34:33.809Z,7.00
2023-01-25T09:35:35.861Z,7.00
2023-01-25T09:36:38.120Z,7.00
2023-01-25T09:37:40.061Z,7.00
2023-01-25T09:38:42.036Z,7.00
2023-01-25T09:39:43.984Z,7.00
2023-01-25T09:40:55.915Z,7.00
2023-01-25T09:42:36.124Z,7.00
2023-01-25T09:44:15.289Z,7.00
2023-01-25T09:45:29.675Z,7.00
2023-01-25T09:46:49.045Z,7.00
2023-01-25T09:48:22.867Z,7.00
2023-01-25T09:49:57.975Z,7.00
2023-01-25T09:51:21.477Z,6.90
2023-01-25T09:52:33.069Z,6.90
2023-01-25T09:53:42.603Z,6.90
2023-01-25T09:54:47.351Z,6.90
2023-01-25T09:55:58.073Z,6.90
2023-01-25T09:57:00.033Z,6.90
2023-01-25T09:58:03.245Z,6.90
2023-01-25T09:59:12.053Z,6.90
2023-01-25T10:00:29.917Z,6.90
2023-01-25T10:01:49.292Z,6.90
2023-01-25T10:03:12.609Z,6.90
2023-01-25T10:04:25.364Z,6.90
2023-01-25T10:05:31.924Z,6.90
2023-01-25T10:06:40.581Z,6.90
2023-01-25T10:08:04.069Z,7.00
2023-01-25T10:09:32.130Z,6.90
2023-01-25T10:10:38.747Z,6.90
2023-01-25T10:11:41.066Z,6.90
2023-01-25T10:12:43.129Z,6.90
2023-01-25T10:13:45.906Z,6.90
2023-01-25T10:14:48.852Z,6.90
2023-01-25T10:15:56.020Z,6.90
2023-01-25T10:17:09.571Z,6.90
2023-01-25T10:18:37.284Z,6.90
2023-01-25T10:20:02.906Z,6.90
2023-01-25T10:21:08.633Z,6.90
2023-01-25T10:22:29.809Z,6.90
2023-01-25T10:23:57.749Z,6.90
2023-01-25T10:25:17.463Z,6.90
2023-01-25T10:26:26.466Z,6.90
2023-01-25T10:28:07.519Z,6.90
2023-01-25T10:29:28.192Z,6.90
2023-01-25T10:30:42.942Z,6.90
2023-01-25T10:31:53.337Z,6.90
2023-01-25T10:34:56.630Z,6.90
2023-01-25T10:36:18.306Z,6.90
2023-01-25T10:37:27.506Z,6.90
2023-01-25T10:38:36.729Z,6.90
2023-01-25T10:39:57.038Z,6.90
2023-01-25T10:41:07.069Z,6.90
2023-01-25T10:42:12.997Z,6.80
2023-01-25T10:43:20.392Z,6.90
2023-01-25T10:44:22.625Z,6.90
2023-01-25T10:45:24.324Z,6.80
2023-01-25T10:46:28.448Z,6.80
2023-01-25T10:47:35.743Z,6.90
2023-01-25T10:48:40.011Z,6.90
2023-01-25T10:49:48.752Z,6.90
2023-01-25T10:50:53.672Z,6.90
2023-01-25T10:51:56.727Z,6.90
2023-01-25T10:52:59.066Z,6.90
2023-01-25T10:54:05.898Z,6.90
2023-01-25T10:55:23.317Z,6.90
2023-01-25T10:56:27.858Z,7.00
2023-01-25T10:57:31.195Z,7.00
2023-01-25T10:58:46.074Z,7.00
2023-01-25T10:59:52.456Z,7.00
2023-01-25T11:00:55.774Z,7.00
2023-01-25T11:02:40.632Z,7.10
2023-01-25T11:03:48.419Z,7.00
2023-01-25T11:04:50.728Z,7.00
2023-01-25T11:05:57.264Z,7.00
2023-01-25T11:07:02.740Z,7.00
2023-01-25T11:08:32.749Z,7.00
2023-01-25T11:09:38.997Z,7.00
2023-01-25T11:10:46.224Z,7.00
2023-01-25T11:12:18.795Z,7.00
2023-01-25T11:13:22.920Z,7.00
2023-01-25T11:14:31.541Z,7.00
2023-01-25T11:15:33.286Z,7.00
2023-01-25T11:16:43.081Z,7.00
2023-01-25T11:17:50.210Z,7.00
2023-01-25T11:18:58.931Z,7.00
2023-01-25T11:20:21.243Z,7.00
2023-01-25T11:21:28.845Z,7.00
2023-01-25T11:22:30.685Z,7.00
2023-01-25T11:23:34.056Z,7.00
2023-01-25T11:24:36.937Z,7.00
2023-01-25T11:25:39.857Z,7.00
2023-01-25T11:26:42.236Z,7.00
2023-01-25T11:27:43.961Z,7.00
2023-01-25T11:28:49.426Z,7.00
2023-01-25T11:30:08.817Z,7.00
2023-01-25T11:31:23.135Z,7.00
2023-01-25T11:32:26.587Z,7.00
2023-01-25T11:33:30.906Z,7.00
2023-01-25T11:34:32.971Z,7.00
2023-01-25T11:35:36.716Z,7.10
2023-01-25T11:37:03.922Z,7.00
2023-01-25T11:38:15.877Z,7.00
2023-01-25T11:39:26.850Z,7.00
2023-01-25T11:40:40.606Z,7.00
2023-01-25T11:41:53.943Z,7.00
2023-01-25T11:43:05.491Z,7.00
2023-01-25T11:44:41.300Z,7.00
2023-01-25T11:46:13.303Z,7.00
2023-01-25T11:47:36.551Z,7.00
2023-01-25T11:49:13.774Z,7.00
2023-01-25T11:50:19.511Z,7.00
2023-01-25T11:51:40.136Z,7.00
2023-01-25T11:53:13.134Z,7.00
2023-01-25T11:54:32.960Z,7.00
2023-01-25T11:55:44.672Z,7.00
2023-01-25T11:56:54.268Z,7.10
2023-01-25T11:58:10.694Z,7.00
2023-01-25T11:59:53.376Z,6.90
2023-01-25T12:01:08.869Z,7.00
2023-01-25T12:02:22.542Z,7.00
2023-01-25T12:03:40.298Z,7.00
2023-01-25T12:05:30.331Z,7.00
2023-01-25T12:06:47.398Z,7.00
2023-01-25T12:08:15.499Z,7.00
2023-01-25T12:09:52.131Z,7.00
2023-01-25T12:11:07.890Z,7.00
2023-01-25T12:12:37.117Z,7.00
2023-01-25T12:13:57.751Z,7.00
2023-01-25T12:15:08.881Z,7.00
2023-01-25T12:16:54.444Z,7.00
2023-01-25T12:18:06.254Z,6.90
2023-01-25T12:19:26.793Z,6.70
2023-01-25T12:21:06.374Z,6.90
2023-01-25T12:22:46.577Z,6.90
2023-01-25T12:24:17.954Z,6.90
2023-01-25T12:25:51.727Z,6.90
2023-01-25T12:27:10.357Z,6.90
2023-01-25T12:28:31.837Z,6.90
2023-01-25T12:29:50.609Z,6.90
2023-01-25T12:31:11.255Z,6.80
2023-01-25T12:32:29.336Z,6.80
2023-01-25T12:33:43.313Z,6.80
2023-01-25T12:34:53.301Z,6.80
2023-01-25T12:36:05.920Z,6.80
2023-01-25T12:37:27.206Z,6.80
2023-01-25T12:38:53.759Z,6.80
2023-01-25T12:40:05.880Z,6.70
2023-01-25T12:41:19.012Z,6.80
2023-01-25T12:42:26.138Z,6.70
2023-01-25T12:43:36.074Z,6.80
2023-01-25T12:44:47.611Z,6.70
2023-01-25T12:45:51.569Z,6.80
2023-01-25T12:47:14.678Z,6.80
2023-01-25T12:48:29.392Z,6.80
2023-01-25T12:49:44.798Z,6.80
2023-01-25T12:50:57.738Z,6.80
2023-01-25T12:52:06.408Z,6.80
2023-01-25T12:53:29.766Z,6.80
2023-01-25T12:54:40.251Z,6.80
2023-01-25T12:55:42.607Z,6.80
2023-01-25T12:57:10.685Z,6.80
2023-01-25T12:58:40.294Z,6.80
2023-01-25T13:00:14.366Z,6.80
2023-01-25T13:01:24.376Z,6.80
2023-01-25T13:02:35.240Z,6.80
2023-01-25T13:04:15.875Z,6.70
2023-01-25T13:05:40.138Z,6.70
2023-01-25T13:06:52.560Z,6.80
2023-01-25T13:08:23.100Z,6.80
2023-01-25T13:09:45.665Z,6.80
2023-01-25T13:10:54.490Z,6.70
2023-01-25T13:11:56.856Z,6.70
2023-01-25T13:13:06.604Z,6.70
2023-01-25T13:14:19.482Z,6.70
2023-01-25T13:15:47.179Z,6.70
2023-01-25T13:17:01.404Z,6.70
2023-01-25T13:18:38.531Z,6.60
2023-01-25T13:19:43.624Z,6.60
2023-01-25T13:20:53.172Z,6.60
2023-01-25T13:21:59.224Z,6.70
2023-01-25T13:23:01.159Z,6.70
2023-01-25T13:24:33.325Z,6.70
2023-01-25T13:25:35.247Z,6.40
2023-01-25T13:26:38.665Z,6.70
2023-01-25T13:27:40.414Z,6.70
2023-01-25T13:28:45.878Z,6.70
2023-01-25T13:29:56.698Z,6.80
2023-01-25T13:30:58.511Z,6.80
2023-01-25T13:32:01.262Z,6.80
2023-01-25T13:33:09.481Z,6.80
2023-01-25T13:34:42.657Z,6.80
2023-01-25T13:35:45.155Z,6.80
2023-01-25T13:36:47.886Z,6.80
2023-01-25T13:38:05.479Z,6.80
2023-01-25T13:39:25.677Z,6.80
2023-01-25T13:40:38.868Z,6.90
2023-01-25T13:42:05.347Z,6.90
2023-01-25T13:43:12.929Z,6.90
2023-01-25T13:44:28.309Z,6.60
2023-01-25T13:45:34.101Z,6.80
2023-01-25T13:46:36.254Z,6.80
2023-01-25T13:47:38.646Z,6.80
2023-01-25T13:48:57.662Z,6.80
2023-01-25T13:50:14.892Z,6.80
2023-01-25T13:51:20.802Z,6.80
2023-01-25T13:52:24.093Z,6.80
2023-01-25T13:53:29.580Z,6.80
2023-01-25T13:54:32.561Z,6.80
2023-01-25T13:55:43.794Z,6.80
2023-01-25T13:56:46.151Z,6.80
2023-01-25T13:57:47.960Z,6.80
2023-01-25T13:58:49.790Z,6.80
2023-01-25T14:00:14.829Z,6.80
2023-01-25T14:01:20.127Z,6.80
2023-01-25T14:02:24.870Z,6.80
2023-01-25T14:03:41.420Z,6.80
2023-01-25T14:04:46.952Z,6.70
2023-01-25T14:05:51.469Z,6.70
2023-01-25T14:07:00.821Z,6.70
2023-01-25T14:08:03.360Z,6.70
2023-01-25T14:09:15.806Z,6.70
2023-01-25T14:10:24.389Z,6.70
2023-01-25T14:11:29.974Z,6.70
2023-01-25T14:12:38.309Z,6.70
2023-01-25T14:14:02.419Z,6.70
2023-01-25T14:15:26.757Z,6.70
2023-01-25T14:16:31.431Z,6.60
2023-01-25T14:17:33.902Z,6.50
2023-01-25T14:18:38.867Z,6.50
2023-01-25T14:19:45.491Z,6.40
2023-01-25T14:20:49.898Z,6.40
2023-01-25T14:22:23.439Z,6.60
2023-01-25T14:23:29.941Z,6.40
2023-01-25T14:24:31.695Z,6.40
2023-01-25T14:25:34.991Z,6.40
2023-01-25T14:26:39.341Z,6.40
2023-01-25T14:27:49.008Z,6.40
2023-01-25T14:29:01.767Z,6.40
2023-01-25T14:30:05.802Z,6.40
2023-01-25T14:31:29.187Z,6.50
2023-01-25T14:32:34.145Z,6.50
2023-01-25T14:33:39.712Z,6.50
2023-01-25T14:34:41.842Z,6.60
2023-01-25T14:35:54.549Z,6.60
2023-01-25T14:37:16.155Z,6.60
2023-01-25T14:38:25.760Z,6.70
2023-01-25T14:39:29.737Z,6.70
2023-01-25T14:40:32.024Z,6.70
2023-01-25T14:41:48.789Z,6.70
2023-01-25T14:43:03.307Z,6.70
2023-01-25T14:44:11.632Z,6.70
2023-01-25T14:45:14.079Z,6.60
2023-01-25T14:46:23.788Z,6.60
2023-01-25T14:47:32.932Z,6.60
2023-01-25T14:48:42.523Z,6.60
2023-01-25T14:49:44.590Z,6.60
2023-01-25T14:50:47.563Z,6.60
2023-01-25T14:51:51.382Z,6.60